sensor_id;sensor_type;location;lat;lon;timestamp;pressure;altitude;pressure_sealevel;temperature;humidity
40850;BME280;26571;41.610;25.380;2024-03-02T00:00:58;97900.59;;;8.46;100.00
40850;BME280;26571;41.610;25.380;2024-03-02T00:03:23;97889.09;;;8.31;100.00
40850;BME280;26571;41.610;25.380;2024-03-02T00:05:50;97894.03;;;8.42;100.00
40850;BME280;26571;41.610;25.380;2024-03-02T00:08:23;97914.16;;;8.49;100.00
40850;BME280;26571;41.610;25.380;2024-03-02T00:10:50;97880.22;;;8.23;100.00
40850;BME280;26571;41.610;25.380;2024-03-02T00:13:16;97894.66;;;8.36;100.00
40850;BME280;26571;41.610;25.380;2024-03-02T00:15:51;97906.28;;;8.49;100.00
40850;BME280;26571;41.610;25.380;2024-03-02T00:20:58;97869.59;;;8.17;100.00
40850;BME280;26571;41.610;25.380;2024-03-02T00:23:24;97856.63;;;7.99;100.00
40850;BME280;26571;41.610;25.380;2024-03-02T00:25:54;97858.59;;;8.13;100.00
40850;BME280;26571;41.610;25.380;2024-03-02T00:28:32;97903.19;;;8.13;100.00
40850;BME280;26571;41.610;25.380;2024-03-02T00:33:30;97894.00;;;8.25;100.00
40850;BME280;26571;41.610;25.380;2024-03-02T00:35:56;97897.78;;;8.31;100.00
40850;BME280;26571;41.610;25.380;2024-03-02T00:38:22;97905.31;;;8.26;100.00
40850;BME280;26571;41.610;25.380;2024-03-02T00:40:48;97880.56;;;7.96;100.00
40850;BME280;26571;41.610;25.380;2024-03-02T00:45:43;97910.38;;;8.19;100.00
40850;BME280;26571;41.610;25.380;2024-03-02T00:48:08;97875.31;;;8.04;100.00
40850;BME280;26571;41.610;25.380;2024-03-02T00:50:34;97871.72;;;8.05;100.00
40850;BME280;26571;41.610;25.380;2024-03-02T00:52:59;97899.59;;;8.31;100.00
40850;BME280;26571;41.610;25.380;2024-03-02T00:55:26;97891.38;;;8.34;100.00
40850;BME280;26571;41.610;25.380;2024-03-02T00:57:52;97845.19;;;7.92;100.00
40850;BME280;26571;41.610;25.380;2024-03-02T01:00:17;97885.81;;;8.28;100.00
40850;BME280;26571;41.610;25.380;2024-03-02T01:02:43;97892.03;;;8.27;100.00
40850;BME280;26571;41.610;25.380;2024-03-02T01:05:10;97896.31;;;8.37;100.00
40850;BME280;26571;41.610;25.380;2024-03-02T01:07:38;97879.59;;;8.13;100.00
40850;BME280;26571;41.610;25.380;2024-03-02T01:10:04;97776.88;;;7.61;100.00
40850;BME280;26571;41.610;25.380;2024-03-02T01:12:30;97877.44;;;8.33;100.00
40850;BME280;26571;41.610;25.380;2024-03-02T01:14:55;97875.13;;;8.30;100.00
40850;BME280;26571;41.610;25.380;2024-03-02T01:17:21;97869.56;;;8.25;100.00
40850;BME280;26571;41.610;25.380;2024-03-02T01:19:47;97885.47;;;8.23;100.00
40850;BME280;26571;41.610;25.380;2024-03-02T01:22:13;97893.66;;;8.28;100.00
40850;BME280;26571;41.610;25.380;2024-03-02T01:24:38;97867.78;;;8.17;100.00
40850;BME280;26571;41.610;25.380;2024-03-02T01:27:04;97877.94;;;8.28;100.00
40850;BME280;26571;41.610;25.380;2024-03-02T01:29:29;97862.88;;;8.22;100.00
40850;BME280;26571;41.610;25.380;2024-03-02T01:31:54;97886.78;;;8.44;100.00
40850;BME280;26571;41.610;25.380;2024-03-02T01:34:20;97886.47;;;8.47;100.00
40850;BME280;26571;41.610;25.380;2024-03-02T01:36:45;97880.91;;;8.42;100.00
40850;BME280;26571;41.610;25.380;2024-03-02T01:39:11;97878.94;;;8.36;100.00
40850;BME280;26571;41.610;25.380;2024-03-02T01:41:36;97876.66;;;8.41;100.00
40850;BME280;26571;41.610;25.380;2024-03-02T01:44:02;97873.19;;;8.48;100.00
40850;BME280;26571;41.610;25.380;2024-03-02T01:46:27;97869.91;;;8.46;100.00
40850;BME280;26571;41.610;25.380;2024-03-02T01:48:53;97872.22;;;8.41;100.00
40850;BME280;26571;41.610;25.380;2024-03-02T01:51:18;97873.03;;;8.42;100.00
40850;BME280;26571;41.610;25.380;2024-03-02T01:53:44;97864.81;;;8.45;100.00
40850;BME280;26571;41.610;25.380;2024-03-02T01:58:35;97869.91;;;8.46;100.00
40850;BME280;26571;41.610;25.380;2024-03-02T02:01:01;97867.13;;;8.48;100.00
40850;BME280;26571;41.610;25.380;2024-03-02T02:05:56;97853.69;;;8.43;100.00
40850;BME280;26571;41.610;25.380;2024-03-02T02:08:22;97855.81;;;8.47;100.00
40850;BME280;26571;41.610;25.380;2024-03-02T02:10:47;97795.19;;;8.10;100.00
40850;BME280;26571;41.610;25.380;2024-03-02T02:13:13;97856.81;;;8.46;100.00
40850;BME280;26571;41.610;25.380;2024-03-02T02:15:38;97857.94;;;8.44;100.00
40850;BME280;26571;41.610;25.380;2024-03-02T02:18:04;97802.56;;;8.14;100.00
40850;BME280;26571;41.610;25.380;2024-03-02T02:20:29;97861.88;;;8.48;100.00
40850;BME280;26571;41.610;25.380;2024-03-02T02:25:27;97857.13;;;8.51;100.00
40850;BME280;26571;41.610;25.380;2024-03-02T02:27:52;97863.50;;;8.65;100.00
40850;BME280;26571;41.610;25.380;2024-03-02T02:30:20;97865.94;;;8.67;100.00
40850;BME280;26571;41.610;25.380;2024-03-02T02:32:46;97863.31;;;8.67;100.00
40850;BME280;26571;41.610;25.380;2024-03-02T02:35:11;97827.28;;;8.52;100.00
40850;BME280;26571;41.610;25.380;2024-03-02T02:37:38;97859.53;;;8.69;100.00
40850;BME280;26571;41.610;25.380;2024-03-02T02:40:04;97859.72;;;8.60;100.00
40850;BME280;26571;41.610;25.380;2024-03-02T02:42:30;97847.81;;;8.41;100.00
40850;BME280;26571;41.610;25.380;2024-03-02T02:44:55;97857.59;;;8.55;100.00
40850;BME280;26571;41.610;25.380;2024-03-02T02:49:51;97848.88;;;8.71;100.00
40850;BME280;26571;41.610;25.380;2024-03-02T02:52:16;97774.72;;;8.21;100.00
40850;BME280;26571;41.610;25.380;2024-03-02T02:54:41;97854.59;;;8.74;100.00
40850;BME280;26571;41.610;25.380;2024-03-02T02:57:07;97854.44;;;8.76;100.00
40850;BME280;26571;41.610;25.380;2024-03-02T02:59:32;97851.31;;;8.80;100.00
40850;BME280;26571;41.610;25.380;2024-03-02T03:04:27;97852.13;;;8.81;100.00
40850;BME280;26571;41.610;25.380;2024-03-02T03:06:52;97848.19;;;8.85;100.00
40850;BME280;26571;41.610;25.380;2024-03-02T03:09:18;97850.94;;;8.84;100.00
40850;BME280;26571;41.610;25.380;2024-03-02T03:11:43;97842.47;;;8.73;100.00
40850;BME280;26571;41.610;25.380;2024-03-02T03:14:09;97784.66;;;8.34;100.00
40850;BME280;26571;41.610;25.380;2024-03-02T03:16:35;97849.66;;;8.79;100.00
40850;BME280;26571;41.610;25.380;2024-03-02T03:19:01;97819.22;;;8.54;100.00
40850;BME280;26571;41.610;25.380;2024-03-02T03:21:26;97850.16;;;8.75;100.00
40850;BME280;26571;41.610;25.380;2024-03-02T03:23:51;97850.00;;;8.76;100.00
40850;BME280;26571;41.610;25.380;2024-03-02T03:26:17;97856.19;;;8.84;100.00
40850;BME280;26571;41.610;25.380;2024-03-02T03:28:42;97850.94;;;8.84;100.00
40850;BME280;26571;41.610;25.380;2024-03-02T03:31:08;97832.63;;;8.75;100.00
40850;BME280;26571;41.610;25.380;2024-03-02T03:33:33;97793.34;;;8.51;100.00
40850;BME280;26571;41.610;25.380;2024-03-02T03:36:00;97843.25;;;8.82;100.00
40850;BME280;26571;41.610;25.380;2024-03-02T03:38:25;97848.00;;;8.87;100.00
40850;BME280;26571;41.610;25.380;2024-03-02T03:40:50;97820.34;;;8.68;100.00
40850;BME280;26571;41.610;25.380;2024-03-02T03:45:41;97856.50;;;8.89;100.00
40850;BME280;26571;41.610;25.380;2024-03-02T03:48:07;97827.56;;;8.66;100.00
40850;BME280;26571;41.610;25.380;2024-03-02T03:50:33;97819.84;;;8.64;100.00
40850;BME280;26571;41.610;25.380;2024-03-02T03:52:59;97818.22;;;8.63;100.00
40850;BME280;26571;41.610;25.380;2024-03-02T03:55:24;97748.19;;;8.16;100.00
40850;BME280;26571;41.610;25.380;2024-03-02T03:57:50;97847.34;;;8.85;100.00
40850;BME280;26571;41.610;25.380;2024-03-02T04:00:16;97527.44;;;6.79;100.00
40850;BME280;26571;41.610;25.380;2024-03-02T04:02:41;97855.25;;;8.76;100.00
40850;BME280;26571;41.610;25.380;2024-03-02T04:05:07;97847.19;;;8.78;100.00
40850;BME280;26571;41.610;25.380;2024-03-02T04:07:36;97862.94;;;8.78;100.00
40850;BME280;26571;41.610;25.380;2024-03-02T04:12:30;97829.03;;;8.60;100.00
40850;BME280;26571;41.610;25.380;2024-03-02T04:14:56;97857.53;;;8.79;100.00
40850;BME280;26571;41.610;25.380;2024-03-02T04:17:21;97863.56;;;8.88;100.00
40850;BME280;26571;41.610;25.380;2024-03-02T04:19:47;97796.09;;;8.58;100.00
40850;BME280;26571;41.610;25.380;2024-03-02T04:22:12;97829.22;;;8.67;100.00
40850;BME280;26571;41.610;25.380;2024-03-02T04:24:38;97769.44;;;8.29;100.00
40850;BME280;26571;41.610;25.380;2024-03-02T04:27:03;97841.28;;;8.84;100.00
40850;BME280;26571;41.610;25.380;2024-03-02T04:29:29;97827.41;;;8.67;100.00
40850;BME280;26571;41.610;25.380;2024-03-02T04:31:54;97850.44;;;8.88;100.00
40850;BME280;26571;41.610;25.380;2024-03-02T04:34:20;97823.09;;;8.74;100.00
40850;BME280;26571;41.610;25.380;2024-03-02T04:36:45;97859.13;;;8.89;100.00
40850;BME280;26571;41.610;25.380;2024-03-02T04:39:11;97867.00;;;8.97;100.00
40850;BME280;26571;41.610;25.380;2024-03-02T04:41:39;97832.66;;;8.67;100.00
40850;BME280;26571;41.610;25.380;2024-03-02T04:44:05;97873.94;;;8.82;100.00
40850;BME280;26571;41.610;25.380;2024-03-02T04:46:33;97859.56;;;8.61;100.00
40850;BME280;26571;41.610;25.380;2024-03-02T04:48:58;97857.44;;;8.48;100.00
40850;BME280;26571;41.610;25.380;2024-03-02T04:51:24;97870.25;;;8.51;100.00
40850;BME280;26571;41.610;25.380;2024-03-02T04:53:49;97842.38;;;8.26;100.00
40850;BME280;26571;41.610;25.380;2024-03-02T04:56:15;97861.25;;;8.38;100.00
40850;BME280;26571;41.610;25.380;2024-03-02T04:58:56;97869.09;;;8.38;100.00
40850;BME280;26571;41.610;25.380;2024-03-02T05:01:21;97852.69;;;8.36;100.00
40850;BME280;26571;41.610;25.380;2024-03-02T05:03:47;97853.00;;;8.49;100.00
40850;BME280;26571;41.610;25.380;2024-03-02T05:06:12;97857.44;;;8.48;100.00
40850;BME280;26571;41.610;25.380;2024-03-02T05:08:38;97829.78;;;8.38;100.00
40850;BME280;26571;41.610;25.380;2024-03-02T05:11:03;97837.59;;;8.54;100.00
40850;BME280;26571;41.610;25.380;2024-03-02T05:13:47;97852.16;;;8.65;100.00
40850;BME280;26571;41.610;25.380;2024-03-02T05:16:13;97865.13;;;8.66;100.00
40850;BME280;26571;41.610;25.380;2024-03-02T05:18:39;97840.88;;;8.56;100.00
40850;BME280;26571;41.610;25.380;2024-03-02T05:21:04;97805.34;;;8.13;100.00
40850;BME280;26571;41.610;25.380;2024-03-02T05:23:30;97860.88;;;8.57;100.00
40850;BME280;26571;41.610;25.380;2024-03-02T05:25:56;97854.94;;;8.63;100.00
40850;BME280;26571;41.610;25.380;2024-03-02T05:28:21;97817.47;;;8.46;100.00
40850;BME280;26571;41.610;25.380;2024-03-02T05:30:47;97857.72;;;8.70;100.00
40850;BME280;26571;41.610;25.380;2024-03-02T05:33:12;97874.44;;;8.69;100.00
40850;BME280;26571;41.610;25.380;2024-03-02T05:35:38;97872.00;;;8.67;100.00
40850;BME280;26571;41.610;25.380;2024-03-02T05:38:03;97879.03;;;8.75;100.00
40850;BME280;26571;41.610;25.380;2024-03-02T05:40:29;97841.56;;;8.42;100.00
40850;BME280;26571;41.610;25.380;2024-03-02T05:42:54;97893.34;;;8.56;100.00
40850;BME280;26571;41.610;25.380;2024-03-02T05:45:20;97886.47;;;8.47;100.00
40850;BME280;26571;41.610;25.380;2024-03-02T05:47:45;97888.09;;;8.48;100.00
40850;BME280;26571;41.610;25.380;2024-03-02T05:50:11;97874.84;;;8.41;100.00
40850;BME280;26571;41.610;25.380;2024-03-02T05:52:36;97858.94;;;8.43;100.00
40850;BME280;26571;41.610;25.380;2024-03-02T05:55:02;97886.97;;;8.42;100.00
40850;BME280;26571;41.610;25.380;2024-03-02T05:57:27;97909.25;;;8.38;100.00
40850;BME280;26571;41.610;25.380;2024-03-02T06:00:11;97794.56;;;7.59;100.00
40850;BME280;26571;41.610;25.380;2024-03-02T06:02:40;97848.97;;;7.81;100.00
40850;BME280;26571;41.610;25.380;2024-03-02T06:05:06;97869.91;;;8.14;100.00
40850;BME280;26571;41.610;25.380;2024-03-02T06:07:32;97772.78;;;7.74;100.00
40850;BME280;26571;41.610;25.380;2024-03-02T06:09:58;97880.88;;;8.58;100.00
40850;BME280;26571;41.610;25.380;2024-03-02T06:14:52;97856.31;;;8.51;100.00
40850;BME280;26571;41.610;25.380;2024-03-02T06:17:18;97858.75;;;8.52;100.00
40850;BME280;26571;41.610;25.380;2024-03-02T06:27:21;97869.19;;;8.69;100.00
40850;BME280;26571;41.610;25.380;2024-03-02T06:29:47;97852.34;;;8.55;100.00
40850;BME280;26571;41.610;25.380;2024-03-02T06:32:13;97875.63;;;8.66;100.00
40850;BME280;26571;41.610;25.380;2024-03-02T06:34:39;97871.38;;;8.57;100.00
40850;BME280;26571;41.610;25.380;2024-03-02T06:37:04;97878.56;;;8.55;100.00
40850;BME280;26571;41.610;25.380;2024-03-02T06:39:30;97875.34;;;8.37;100.00
40850;BME280;26571;41.610;25.380;2024-03-02T06:41:56;97885.63;;;8.54;100.00
40850;BME280;26571;41.610;25.380;2024-03-02T06:44:21;97880.22;;;8.56;100.00
40850;BME280;26571;41.610;25.380;2024-03-02T06:46:47;97855.47;;;8.34;100.00
40850;BME280;26571;41.610;25.380;2024-03-02T06:49:12;97847.13;;;8.31;100.00
40850;BME280;26571;41.610;25.380;2024-03-02T06:51:38;97887.13;;;8.57;100.00
40850;BME280;26571;41.610;25.380;2024-03-02T06:54:03;97895.44;;;8.69;100.00
40850;BME280;26571;41.610;25.380;2024-03-02T06:56:29;97877.56;;;8.64;100.00
40850;BME280;26571;41.610;25.380;2024-03-02T06:58:56;97885.06;;;8.84;100.00
40850;BME280;26571;41.610;25.380;2024-03-02T07:01:21;97864.94;;;8.76;100.00
40850;BME280;26571;41.610;25.380;2024-03-02T07:03:46;97877.50;;;8.89;100.00
40850;BME280;26571;41.610;25.380;2024-03-02T07:06:15;97865.56;;;8.86;100.00
40850;BME280;26571;41.610;25.380;2024-03-02T07:08:40;97832.34;;;8.54;100.00
40850;BME280;26571;41.610;25.380;2024-03-02T07:11:08;97880.28;;;8.95;100.00
40850;BME280;26571;41.610;25.380;2024-03-02T07:13:34;97887.31;;;9.03;100.00
40850;BME280;26571;41.610;25.380;2024-03-02T07:16:00;97863.81;;;9.10;100.00
40850;BME280;26571;41.610;25.380;2024-03-02T07:18:29;97850.13;;;9.22;100.00
40850;BME280;26571;41.610;25.380;2024-03-02T07:20:56;97867.81;;;9.59;100.00
40850;BME280;26571;41.610;25.380;2024-03-02T07:23:23;97829.47;;;9.50;100.00
40850;BME280;26571;41.610;25.380;2024-03-02T07:25:52;97878.09;;;9.69;100.00
40850;BME280;26571;41.610;25.380;2024-03-02T07:28:22;97889.91;;;9.73;100.00
40850;BME280;26571;41.610;25.380;2024-03-02T07:31:00;97870.41;;;9.68;100.00
40850;BME280;26571;41.610;25.380;2024-03-02T07:33:26;97881.66;;;9.99;100.00
40850;BME280;26571;41.610;25.380;2024-03-02T07:35:52;97840.00;;;10.11;100.00
40850;BME280;26571;41.610;25.380;2024-03-02T07:38:18;97867.84;;;10.43;100.00
40850;BME280;26571;41.610;25.380;2024-03-02T07:40:43;97879.59;;;10.70;100.00
40850;BME280;26571;41.610;25.380;2024-03-02T07:43:09;97872.59;;;10.77;100.00
40850;BME280;26571;41.610;25.380;2024-03-02T07:45:34;97837.34;;;10.34;100.00
40850;BME280;26571;41.610;25.380;2024-03-02T07:48:03;97882.25;;;10.70;100.00
40850;BME280;26571;41.610;25.380;2024-03-02T07:50:31;97847.25;;;10.47;100.00
40850;BME280;26571;41.610;25.380;2024-03-02T07:53:03;97884.13;;;10.61;100.00
40850;BME280;26571;41.610;25.380;2024-03-02T07:55:29;97846.44;;;10.31;100.00
40850;BME280;26571;41.610;25.380;2024-03-02T07:57:56;97885.09;;;10.46;100.00
40850;BME280;26571;41.610;25.380;2024-03-02T08:00:22;97870.97;;;10.24;100.00
40850;BME280;26571;41.610;25.380;2024-03-02T08:02:48;97894.00;;;10.45;100.00
40850;BME280;26571;41.610;25.380;2024-03-02T08:05:14;97888.25;;;10.26;100.00
40850;BME280;26571;41.610;25.380;2024-03-02T08:07:40;97882.34;;;10.24;100.00
40850;BME280;26571;41.610;25.380;2024-03-02T08:10:06;97900.34;;;10.35;100.00
40850;BME280;26571;41.610;25.380;2024-03-02T08:12:32;97898.41;;;10.29;100.00
40850;BME280;26571;41.610;25.380;2024-03-02T08:14:58;97858.47;;;10.03;100.00
40850;BME280;26571;41.610;25.380;2024-03-02T08:17:23;97859.28;;;10.03;100.00
40850;BME280;26571;41.610;25.380;2024-03-02T08:19:49;97910.72;;;10.06;100.00
40850;BME280;26571;41.610;25.380;2024-03-02T08:22:15;97907.66;;;9.94;100.00
40850;BME280;26571;41.610;25.380;2024-03-02T08:24:40;97887.16;;;9.67;100.00
40850;BME280;26571;41.610;25.380;2024-03-02T08:27:06;97932.56;;;9.83;100.00
40850;BME280;26571;41.610;25.380;2024-03-02T08:29:35;97892.19;;;9.76;100.00
40850;BME280;26571;41.610;25.380;2024-03-02T08:32:00;97922.53;;;9.87;100.00
40850;BME280;26571;41.610;25.380;2024-03-02T08:34:26;97915.25;;;9.66;100.00
40850;BME280;26571;41.610;25.380;2024-03-02T08:36:52;97713.53;;;7.82;100.00
40850;BME280;26571;41.610;25.380;2024-03-02T08:41:52;97786.03;;;8.77;100.00
40850;BME280;26571;41.610;25.380;2024-03-02T08:44:18;97909.19;;;9.66;100.00
40850;BME280;26571;41.610;25.380;2024-03-02T08:46:44;97905.25;;;9.62;100.00
40850;BME280;26571;41.610;25.380;2024-03-02T08:49:10;97813.16;;;9.01;100.00
40850;BME280;26571;41.610;25.380;2024-03-02T08:51:35;97908.59;;;9.55;100.00
40850;BME280;26571;41.610;25.380;2024-03-02T08:54:01;97876.69;;;9.36;100.00
40850;BME280;26571;41.610;25.380;2024-03-02T08:56:26;97918.91;;;9.57;100.00
40850;BME280;26571;41.610;25.380;2024-03-02T08:58:52;97906.16;;;9.77;100.00
40850;BME280;26571;41.610;25.380;2024-03-02T09:01:18;97903.78;;;9.90;100.00
40850;BME280;26571;41.610;25.380;2024-03-02T09:03:45;97904.47;;;10.07;100.00
40850;BME280;26571;41.610;25.380;2024-03-02T09:06:13;97904.34;;;10.23;100.00
40850;BME280;26571;41.610;25.380;2024-03-02T09:08:39;97907.47;;;10.27;100.00
40850;BME280;26571;41.610;25.380;2024-03-02T09:11:08;97900.41;;;10.19;100.00
40850;BME280;26571;41.610;25.380;2024-03-02T09:13:34;97904.66;;;10.28;100.00
40850;BME280;26571;41.610;25.380;2024-03-02T09:16:00;97899.16;;;10.15;100.00
40850;BME280;26571;41.610;25.380;2024-03-02T09:18:37;97901.69;;;10.23;100.00
40850;BME280;26571;41.610;25.380;2024-03-02T09:21:03;97839.91;;;9.81;100.00
40850;BME280;26571;41.610;25.380;2024-03-02T09:23:30;97900.91;;;10.00;100.00
40850;BME280;26571;41.610;25.380;2024-03-02T09:25:58;97889.88;;;9.81;100.00
40850;BME280;26571;41.610;25.380;2024-03-02T09:28:24;97909.78;;;9.99;100.00
40850;BME280;26571;41.610;25.380;2024-03-02T09:30:52;97906.03;;;9.70;100.00
40850;BME280;26571;41.610;25.380;2024-03-02T09:33:17;97899.81;;;9.40;100.00
40850;BME280;26571;41.610;25.380;2024-03-02T09:35:43;97816.81;;;8.92;100.00
40850;BME280;26571;41.610;25.380;2024-03-02T09:38:27;97895.69;;;9.38;100.00
40850;BME280;26571;41.610;25.380;2024-03-02T09:40:53;97874.06;;;9.27;100.00
40850;BME280;26571;41.610;25.380;2024-03-02T09:43:18;97863.06;;;9.32;100.00
40850;BME280;26571;41.610;25.380;2024-03-02T09:45:45;97912.94;;;9.71;100.00
40850;BME280;26571;41.610;25.380;2024-03-02T09:48:10;97875.06;;;9.57;100.00
40850;BME280;26571;41.610;25.380;2024-03-02T09:50:36;97899.03;;;9.86;100.00
40850;BME280;26571;41.610;25.380;2024-03-02T09:53:01;97883.19;;;9.94;100.00
40850;BME280;26571;41.610;25.380;2024-03-02T09:55:27;97900.75;;;10.24;100.00
40850;BME280;26571;41.610;25.380;2024-03-02T09:57:55;97898.31;;;10.38;100.00
40850;BME280;26571;41.610;25.380;2024-03-02T10:00:21;97784.00;;;9.88;100.00
40850;BME280;26571;41.610;25.380;2024-03-02T10:02:46;97895.94;;;10.66;100.00
40850;BME280;26571;41.610;25.380;2024-03-02T10:05:23;97890.28;;;10.69;100.00
40850;BME280;26571;41.610;25.380;2024-03-02T10:07:58;97864.16;;;10.67;100.00
40850;BME280;26571;41.610;25.380;2024-03-02T10:10:34;97892.50;;;11.09;100.00
40850;BME280;26571;41.610;25.380;2024-03-02T10:13:04;97890.75;;;11.17;100.00
40850;BME280;26571;41.610;25.380;2024-03-02T10:15:30;97887.03;;;11.26;100.00
40850;BME280;26571;41.610;25.380;2024-03-02T10:17:56;97858.59;;;11.21;100.00
40850;BME280;26571;41.610;25.380;2024-03-02T10:20:26;97888.88;;;11.61;100.00
40850;BME280;26571;41.610;25.380;2024-03-02T10:22:55;97889.19;;;11.73;100.00
40850;BME280;26571;41.610;25.380;2024-03-02T10:25:31;97882.50;;;11.92;100.00
40850;BME280;26571;41.610;25.380;2024-03-02T10:28:00;97874.94;;;12.04;100.00
40850;BME280;26571;41.610;25.380;2024-03-02T10:30:54;97878.34;;;12.26;100.00
40850;BME280;26571;41.610;25.380;2024-03-02T10:33:26;97874.94;;;12.32;100.00
40850;BME280;26571;41.610;25.380;2024-03-02T10:35:52;97872.50;;;12.30;100.00
40850;BME280;26571;41.610;25.380;2024-03-02T10:38:18;97847.00;;;12.16;100.00
40850;BME280;26571;41.610;25.380;2024-03-02T10:40:47;97891.56;;;12.26;100.00
40850;BME280;26571;41.610;25.380;2024-03-02T10:43:14;97865.69;;;12.14;100.00
40850;BME280;26571;41.610;25.380;2024-03-02T10:45:40;97863.66;;;12.16;100.00
40850;BME280;26571;41.610;25.380;2024-03-02T10:48:06;97853.44;;;12.07;100.00
40850;BME280;26571;41.610;25.380;2024-03-02T10:50:32;97825.06;;;11.87;100.00
40850;BME280;26571;41.610;25.380;2024-03-02T10:52:57;97806.59;;;11.87;100.00
40850;BME280;26571;41.610;25.380;2024-03-02T10:55:23;97848.28;;;12.20;100.00
40850;BME280;26571;41.610;25.380;2024-03-02T10:57:53;97850.00;;;12.34;100.00
40850;BME280;26571;41.610;25.380;2024-03-02T11:00:19;97846.03;;;12.45;100.00
40850;BME280;26571;41.610;25.380;2024-03-02T11:02:51;97843.97;;;12.40;99.28
40850;BME280;26571;41.610;25.380;2024-03-02T11:05:33;97829.66;;;12.28;100.00
40850;BME280;26571;41.610;25.380;2024-03-02T11:08:18;97840.84;;;12.30;100.00
40850;BME280;26571;41.610;25.380;2024-03-02T11:10:58;97846.56;;;12.12;100.00
40850;BME280;26571;41.610;25.380;2024-03-02T11:13:34;97807.59;;;11.86;100.00
40850;BME280;26571;41.610;25.380;2024-03-02T11:16:06;97842.09;;;12.13;100.00
40850;BME280;26571;41.610;25.380;2024-03-02T11:18:36;97834.44;;;12.18;100.00
40850;BME280;26571;41.610;25.380;2024-03-02T11:21:03;97843.53;;;12.09;100.00
40850;BME280;26571;41.610;25.380;2024-03-02T11:23:32;97833.84;;;11.95;100.00
40850;BME280;26571;41.610;25.380;2024-03-02T11:28:44;97741.41;;;11.38;100.00
40850;BME280;26571;41.610;25.380;2024-03-02T11:31:09;97833.66;;;11.96;100.00
40850;BME280;26571;41.610;25.380;2024-03-02T11:33:35;97822.00;;;11.84;100.00
40850;BME280;26571;41.610;25.380;2024-03-02T11:36:00;97827.97;;;11.78;100.00
40850;BME280;26571;41.610;25.380;2024-03-02T11:38:31;97834.34;;;11.83;100.00
40850;BME280;26571;41.610;25.380;2024-03-02T11:41:00;97836.09;;;11.76;100.00
40850;BME280;26571;41.610;25.380;2024-03-02T11:43:28;97828.28;;;11.68;100.00
40850;BME280;26571;41.610;25.380;2024-03-02T11:45:58;97802.06;;;11.60;100.00
40850;BME280;26571;41.610;25.380;2024-03-02T11:48:26;97823.91;;;11.75;100.00
40850;BME280;26571;41.610;25.380;2024-03-02T11:50:52;97835.84;;;11.93;100.00
40850;BME280;26571;41.610;25.380;2024-03-02T11:53:20;97810.59;;;11.83;100.00
40850;BME280;26571;41.610;25.380;2024-03-02T11:55:46;97821.16;;;11.83;100.00
40850;BME280;26571;41.610;25.380;2024-03-02T11:58:12;97824.06;;;11.88;100.00
40850;BME280;26571;41.610;25.380;2024-03-02T12:00:37;97824.63;;;11.84;100.00
40850;BME280;26571;41.610;25.380;2024-03-02T12:03:08;97818.44;;;11.77;100.00
40850;BME280;26571;41.610;25.380;2024-03-02T12:05:35;97810.97;;;11.80;100.00
40850;BME280;26571;41.610;25.380;2024-03-02T12:08:02;97801.19;;;11.74;100.00
40850;BME280;26571;41.610;25.380;2024-03-02T12:10:29;97812.31;;;11.91;100.00
40850;BME280;26571;41.610;25.380;2024-03-02T12:13:05;97804.94;;;12.08;100.00
40850;BME280;26571;41.610;25.380;2024-03-02T12:15:37;97807.81;;;12.13;100.00
40850;BME280;26571;41.610;25.380;2024-03-02T12:18:05;97772.19;;;11.96;100.00
40850;BME280;26571;41.610;25.380;2024-03-02T12:20:37;97799.47;;;12.09;100.00
40850;BME280;26571;41.610;25.380;2024-03-02T12:23:04;97805.00;;;12.14;100.00
40850;BME280;26571;41.610;25.380;2024-03-02T12:25:30;97777.44;;;11.96;100.00
40850;BME280;26571;41.610;25.380;2024-03-02T12:27:58;97803.47;;;11.99;100.00
40850;BME280;26571;41.610;25.380;2024-03-02T12:30:27;97808.63;;;11.85;100.00
40850;BME280;26571;41.610;25.380;2024-03-02T12:32:54;97789.19;;;11.72;100.00
40850;BME280;26571;41.610;25.380;2024-03-02T12:35:20;97806.59;;;11.87;100.00
40850;BME280;26571;41.610;25.380;2024-03-02T12:37:50;97806.06;;;11.77;100.00
40850;BME280;26571;41.610;25.380;2024-03-02T12:40:17;97810.28;;;11.72;100.00
40850;BME280;26571;41.610;25.380;2024-03-02T12:42:44;97800.28;;;11.67;100.00
40850;BME280;26571;41.610;25.380;2024-03-02T12:45:10;97793.00;;;11.48;100.00
40850;BME280;26571;41.610;25.380;2024-03-02T12:47:37;97798.06;;;11.64;100.00
40850;BME280;26571;41.610;25.380;2024-03-02T12:50:20;97746.56;;;11.25;100.00
40850;BME280;26571;41.610;25.380;2024-03-02T12:52:53;97801.16;;;11.53;100.00
40850;BME280;26571;41.610;25.380;2024-03-02T12:55:20;97807.56;;;11.44;100.00
40850;BME280;26571;41.610;25.380;2024-03-02T12:57:46;97814.94;;;11.33;100.00
40850;BME280;26571;41.610;25.380;2024-03-02T13:00:12;97804.84;;;11.37;100.00
40850;BME280;26571;41.610;25.380;2024-03-02T13:02:42;97747.72;;;11.01;100.00
40850;BME280;26571;41.610;25.380;2024-03-02T13:05:08;97773.72;;;11.26;100.00
40850;BME280;26571;41.610;25.380;2024-03-02T13:07:40;97757.47;;;11.22;100.00
40850;BME280;26571;41.610;25.380;2024-03-02T13:10:10;97778.19;;;11.25;100.00
40850;BME280;26571;41.610;25.380;2024-03-02T13:12:36;97791.72;;;11.22;100.00
40850;BME280;26571;41.610;25.380;2024-03-02T13:15:03;97810.31;;;11.14;100.00
40850;BME280;26571;41.610;25.380;2024-03-02T13:17:29;97812.28;;;11.12;100.00
40850;BME280;26571;41.610;25.380;2024-03-02T13:19:58;97813.09;;;11.12;100.00
40850;BME280;26571;41.610;25.380;2024-03-02T13:22:24;97817.84;;;11.02;100.00
40850;BME280;26571;41.610;25.380;2024-03-02T13:24:50;97817.03;;;10.87;100.00